sensor_id;sensor_type;location;lat;lon;timestamp;pressure;altitude;pressure_sealevel;temperature;humidity
14393;BME280;7281;42.678;23.372;2022-10-31T00:00:31;95544.75;;;19.84;34.09
14393;BME280;7281;42.678;23.372;2022-10-31T00:02:58;95551.66;;;19.85;34.01
14393;BME280;7281;42.678;23.372;2022-10-31T00:05:25;95535.41;;;19.32;34.61
14393;BME280;7281;42.678;23.372;2022-10-31T00:07:53;95548.69;;;19.32;34.87
14393;BME280;7281;42.678;23.372;2022-10-31T00:10:20;95553.44;;;19.49;34.68
14393;BME280;7281;42.678;23.372;2022-10-31T00:12:46;95536.78;;;19.43;34.43
14393;BME280;7281;42.678;23.372;2022-10-31T00:15:13;95543.56;;;19.36;34.98
14393;BME280;7281;42.678;23.372;2022-10-31T00:17:40;95538.47;;;19.66;34.67
14393;BME280;7281;42.678;23.372;2022-10-31T00:20:07;95542.41;;;19.55;34.83
14393;BME280;7281;42.678;23.372;2022-10-31T00:22:34;95548.09;;;19.35;35.28
14393;BME280;7281;42.678;23.372;2022-10-31T00:25:01;95541.81;;;19.72;34.54
14393;BME280;7281;42.678;23.372;2022-10-31T00:27:28;95541.09;;;19.53;34.99
14393;BME280;7281;42.678;23.372;2022-10-31T00:29:55;95546.81;;;19.60;34.91
14393;BME280;7281;42.678;23.372;2022-10-31T00:32:21;95546.81;;;19.60;34.98
14393;BME280;7281;42.678;23.372;2022-10-31T00:34:48;95550.63;;;19.27;35.38
14393;BME280;7281;42.678;23.372;2022-10-31T00:37:15;95537.88;;;19.42;35.36
14393;BME280;7281;42.678;23.372;2022-10-31T00:39:43;95529.97;;;19.51;35.15
14393;BME280;7281;42.678;23.372;2022-10-31T00:42:11;95538.84;;;19.87;34.60
14393;BME280;7281;42.678;23.372;2022-10-31T00:44:41;95539.41;;;19.84;34.89
14393;BME280;7281;42.678;23.372;2022-10-31T00:47:07;95539.53;;;19.79;34.83
14393;BME280;7281;42.678;23.372;2022-10-31T00:49:34;95549.28;;;19.70;35.19
14393;BME280;7281;42.678;23.372;2022-10-31T00:52:01;95549.06;;;19.80;34.86
14393;BME280;7281;42.678;23.372;2022-10-31T00:54:28;95548.28;;;19.39;35.52
14393;BME280;7281;42.678;23.372;2022-10-31T00:56:57;95549.69;;;19.63;35.32
14393;BME280;7281;42.678;23.372;2022-10-31T00:59:24;95548.59;;;19.51;35.64
14393;BME280;7281;42.678;23.372;2022-10-31T01:01:51;95550.50;;;19.04;36.45
14393;BME280;7281;42.678;23.372;2022-10-31T01:04:18;95557.19;;;18.83;36.99
14393;BME280;7281;42.678;23.372;2022-10-31T01:06:45;95556.84;;;18.90;36.75
14393;BME280;7281;42.678;23.372;2022-10-31T01:09:11;95556.38;;;18.69;36.98
14393;BME280;7281;42.678;23.372;2022-10-31T01:11:38;95566.63;;;18.76;37.05
14393;BME280;7281;42.678;23.372;2022-10-31T01:14:08;95559.53;;;18.71;36.96
14393;BME280;7281;42.678;23.372;2022-10-31T01:16:35;95558.38;;;18.77;36.87
14393;BME280;7281;42.678;23.372;2022-10-31T01:19:02;95566.84;;;18.79;36.92
14393;BME280;7281;42.678;23.372;2022-10-31T01:21:29;95566.25;;;18.50;37.32
14393;BME280;7281;42.678;23.372;2022-10-31T01:23:58;95576.16;;;18.45;37.32
14393;BME280;7281;42.678;23.372;2022-10-31T01:26:27;95572.19;;;18.42;37.34
14393;BME280;7281;42.678;23.372;2022-10-31T01:28:57;95574.22;;;18.27;37.82
14393;BME280;7281;42.678;23.372;2022-10-31T01:31:27;95573.88;;;18.33;37.86
14393;BME280;7281;42.678;23.372;2022-10-31T01:33:56;95579.78;;;18.30;37.95
14393;BME280;7281;42.678;23.372;2022-10-31T01:36:25;95580.47;;;18.17;38.01
14393;BME280;7281;42.678;23.372;2022-10-31T01:38:55;95576.56;;;17.91;38.26
14393;BME280;7281;42.678;23.372;2022-10-31T01:41:25;95587.97;;;17.91;38.37
14393;BME280;7281;42.678;23.372;2022-10-31T01:43:55;95574.75;;;18.10;37.99
14393;BME280;7281;42.678;23.372;2022-10-31T01:49:01;95589.66;;;18.06;38.37
14393;BME280;7281;42.678;23.372;2022-10-31T01:51:33;95587.91;;;17.96;38.36
14393;BME280;7281;42.678;23.372;2022-10-31T01:54:05;95586.59;;;17.94;38.70
14393;BME280;7281;42.678;23.372;2022-10-31T01:56:35;95575.00;;;17.90;38.31
14393;BME280;7281;42.678;23.372;2022-10-31T01:59:07;95576.97;;;17.79;38.43
14393;BME280;7281;42.678;23.372;2022-10-31T02:01:37;95568.03;;;17.75;38.72
14393;BME280;7281;42.678;23.372;2022-10-31T02:04:05;95571.41;;;17.81;38.54
14393;BME280;7281;42.678;23.372;2022-10-31T02:06:38;95564.06;;;17.49;39.46
14393;BME280;7281;42.678;23.372;2022-10-31T02:09:06;95567.97;;;17.57;39.58
14393;BME280;7281;42.678;23.372;2022-10-31T02:11:34;95565.88;;;17.54;39.70
14393;BME280;7281;42.678;23.372;2022-10-31T02:14:03;95571.94;;;17.78;39.09
14393;BME280;7281;42.678;23.372;2022-10-31T02:16:30;95569.03;;;17.56;39.29
14393;BME280;7281;42.678;23.372;2022-10-31T02:18:57;95580.81;;;17.68;39.49
14393;BME280;7281;42.678;23.372;2022-10-31T02:30:03;95585.72;;;17.80;39.54
14393;BME280;7281;42.678;23.372;2022-10-31T02:32:41;95586.03;;;17.97;38.97
14393;BME280;7281;42.678;23.372;2022-10-31T02:38:52;95589.56;;;17.69;39.26
14393;BME280;7281;42.678;23.372;2022-10-31T02:44:21;95606.13;;;17.79;39.74
14393;BME280;7281;42.678;23.372;2022-10-31T02:47:05;95600.72;;;17.66;39.77
14393;BME280;7281;42.678;23.372;2022-10-31T02:49:35;95602.28;;;17.67;39.63
14393;BME280;7281;42.678;23.372;2022-10-31T02:52:37;95597.34;;;17.60;40.11
14393;BME280;7281;42.678;23.372;2022-10-31T02:58:00;95594.28;;;17.48;40.19
14393;BME280;7281;42.678;23.372;2022-10-31T03:00:43;95605.09;;;17.52;40.39
14393;BME280;7281;42.678;23.372;2022-10-31T03:03:46;95622.59;;;17.53;39.87
14393;BME280;7281;42.678;23.372;2022-10-31T03:06:32;95610.31;;;17.62;40.01
14393;BME280;7281;42.678;23.372;2022-10-31T03:14:35;95607.06;;;17.70;39.80
14393;BME280;7281;42.678;23.372;2022-10-31T03:17:08;95597.19;;;17.47;40.23
14393;BME280;7281;42.678;23.372;2022-10-31T03:19:39;95602.44;;;17.52;40.02
14393;BME280;7281;42.678;23.372;2022-10-31T03:22:24;95600.50;;;17.34;40.67
14393;BME280;7281;42.678;23.372;2022-10-31T03:24:53;95610.50;;;17.42;40.39
14393;BME280;7281;42.678;23.372;2022-10-31T03:27:25;95607.44;;;17.30;40.99
14393;BME280;7281;42.678;23.372;2022-10-31T03:29:56;95609.78;;;17.60;40.30
14393;BME280;7281;42.678;23.372;2022-10-31T03:32:44;95621.00;;;17.52;40.96
14393;BME280;7281;42.678;23.372;2022-10-31T03:35:14;95621.56;;;17.49;40.73
14393;BME280;7281;42.678;23.372;2022-10-31T03:37:42;95616.22;;;17.54;40.94
14393;BME280;7281;42.678;23.372;2022-10-31T03:40:14;95617.88;;;17.50;40.93
14393;BME280;7281;42.678;23.372;2022-10-31T03:42:46;95626.88;;;17.49;40.83
14393;BME280;7281;42.678;23.372;2022-10-31T03:45:24;95630.59;;;17.48;41.24
14393;BME280;7281;42.678;23.372;2022-10-31T03:47:53;95629.16;;;17.32;41.10
14393;BME280;7281;42.678;23.372;2022-10-31T03:50:21;95626.97;;;17.34;40.95
14393;BME280;7281;42.678;23.372;2022-10-31T03:52:55;95629.09;;;17.37;41.40
14393;BME280;7281;42.678;23.372;2022-10-31T03:55:31;95622.72;;;17.38;41.24
14393;BME280;7281;42.678;23.372;2022-10-31T03:58:08;95636.97;;;17.42;40.74
14393;BME280;7281;42.678;23.372;2022-10-31T04:00:44;95646.09;;;17.31;41.08
14393;BME280;7281;42.678;23.372;2022-10-31T04:05:43;95647.19;;;17.30;41.23
14393;BME280;7281;42.678;23.372;2022-10-31T04:08:15;95642.97;;;17.23;40.82
14393;BME280;7281;42.678;23.372;2022-10-31T04:10:46;95626.28;;;16.94;41.19
14393;BME280;7281;42.678;23.372;2022-10-31T04:13:19;95647.88;;;17.11;41.12
14393;BME280;7281;42.678;23.372;2022-10-31T04:15:56;95650.28;;;17.03;41.68
14393;BME280;7281;42.678;23.372;2022-10-31T04:18:25;95661.63;;;17.08;41.55
14393;BME280;7281;42.678;23.372;2022-10-31T04:21:01;95642.06;;;17.04;41.93
14393;BME280;7281;42.678;23.372;2022-10-31T04:23:30;95647.94;;;17.01;41.79
14393;BME280;7281;42.678;23.372;2022-10-31T04:25:58;95653.81;;;16.93;41.42
14393;BME280;7281;42.678;23.372;2022-10-31T04:28:25;95650.38;;;16.93;41.68
14393;BME280;7281;42.678;23.372;2022-10-31T04:30:52;95659.47;;;16.82;41.94
14393;BME280;7281;42.678;23.372;2022-10-31T04:33:20;95634.28;;;16.89;41.88
14393;BME280;7281;42.678;23.372;2022-10-31T04:35:47;95648.50;;;16.98;42.13
14393;BME280;7281;42.678;23.372;2022-10-31T04:38:14;95651.63;;;17.05;41.50
14393;BME280;7281;42.678;23.372;2022-10-31T04:40:42;95647.13;;;17.01;41.86
14393;BME280;7281;42.678;23.372;2022-10-31T04:43:29;95655.34;;;16.99;42.05
14393;BME280;7281;42.678;23.372;2022-10-31T04:45:58;95667.69;;;16.80;42.05
14393;BME280;7281;42.678;23.372;2022-10-31T04:48:25;95667.66;;;16.85;41.95
14393;BME280;7281;42.678;23.372;2022-10-31T04:50:52;95663.50;;;16.74;42.58
14393;BME280;7281;42.678;23.372;2022-10-31T04:53:19;95666.56;;;16.86;42.13
14393;BME280;7281;42.678;23.372;2022-10-31T04:56:06;95672.47;;;16.73;42.77
14393;BME280;7281;42.678;23.372;2022-10-31T04:58:39;95672.91;;;16.90;42.04
14393;BME280;7281;42.678;23.372;2022-10-31T05:01:08;95673.69;;;16.91;42.15
14393;BME280;7281;42.678;23.372;2022-10-31T05:03:35;95667.03;;;16.93;42.31
14393;BME280;7281;42.678;23.372;2022-10-31T05:06:01;95670.44;;;16.65;42.87
14393;BME280;7281;42.678;23.372;2022-10-31T05:08:28;95667.31;;;16.97;41.85
14393;BME280;7281;42.678;23.372;2022-10-31T05:10:59;95671.03;;;16.52;45.31
14393;BME280;7281;42.678;23.372;2022-10-31T05:13:31;95671.38;;;16.79;43.37
14393;BME280;7281;42.678;23.372;2022-10-31T05:16:18;95675.03;;;16.88;42.95
14393;BME280;7281;42.678;23.372;2022-10-31T05:19:03;95689.34;;;16.87;43.88
14393;BME280;7281;42.678;23.372;2022-10-31T05:21:50;95693.13;;;17.10;43.04
14393;BME280;7281;42.678;23.372;2022-10-31T05:24:18;95691.38;;;17.00;42.81
14393;BME280;7281;42.678;23.372;2022-10-31T05:26:48;95694.50;;;17.07;43.14
14393;BME280;7281;42.678;23.372;2022-10-31T05:29:16;95699.91;;;16.92;42.82
14393;BME280;7281;42.678;23.372;2022-10-31T05:31:43;95695.16;;;16.84;42.88
14393;BME280;7281;42.678;23.372;2022-10-31T05:34:23;95695.63;;;16.96;43.00
14393;BME280;7281;42.678;23.372;2022-10-31T05:37:16;95698.28;;;16.96;42.91
14393;BME280;7281;42.678;23.372;2022-10-31T05:39:44;95703.53;;;17.01;42.77
14393;BME280;7281;42.678;23.372;2022-10-31T05:42:14;95702.22;;;16.99;42.43
14393;BME280;7281;42.678;23.372;2022-10-31T05:44:41;95707.28;;;16.95;42.94
14393;BME280;7281;42.678;23.372;2022-10-31T05:47:19;95700.84;;;17.06;43.39
14393;BME280;7281;42.678;23.372;2022-10-31T05:50:05;95715.19;;;17.00;42.93
14393;BME280;7281;42.678;23.372;2022-10-31T05:52:47;95715.25;;;16.90;43.28
14393;BME280;7281;42.678;23.372;2022-10-31T05:55:23;95711.28;;;16.93;42.86
14393;BME280;7281;42.678;23.372;2022-10-31T05:58:09;95717.81;;;17.05;42.50
14393;BME280;7281;42.678;23.372;2022-10-31T06:00:39;95716.72;;;17.11;42.88
14393;BME280;7281;42.678;23.372;2022-10-31T06:03:09;95717.81;;;17.05;42.63
14393;BME280;7281;42.678;23.372;2022-10-31T06:05:56;95715.34;;;16.80;43.88
14393;BME280;7281;42.678;23.372;2022-10-31T06:08:30;95722.06;;;17.01;43.26
14393;BME280;7281;42.678;23.372;2022-10-31T06:11:01;95722.00;;;17.11;43.58
14393;BME280;7281;42.678;23.372;2022-10-31T06:13:48;95739.59;;;16.92;43.69
14393;BME280;7281;42.678;23.372;2022-10-31T06:16:20;95740.34;;;16.44;45.48
14393;BME280;7281;42.678;23.372;2022-10-31T06:18:48;95743.28;;;16.38;46.32
14393;BME280;7281;42.678;23.372;2022-10-31T06:21:16;95744.97;;;16.77;45.49
14393;BME280;7281;42.678;23.372;2022-10-31T06:23:47;95742.69;;;17.04;44.51
14393;BME280;7281;42.678;23.372;2022-10-31T06:26:34;95743.75;;;17.42;44.07
14393;BME280;7281;42.678;23.372;2022-10-31T06:29:01;95757.91;;;17.28;43.76
14393;BME280;7281;42.678;23.372;2022-10-31T06:31:58;95752.75;;;17.41;43.78
14393;BME280;7281;42.678;23.372;2022-10-31T06:34:27;95758.63;;;17.38;42.48
14393;BME280;7281;42.678;23.372;2022-10-31T06:36:53;95762.66;;;17.31;43.16
14393;BME280;7281;42.678;23.372;2022-10-31T06:39:23;95754.81;;;17.83;42.14
14393;BME280;7281;42.678;23.372;2022-10-31T06:41:51;95759.72;;;18.23;41.56
14393;BME280;7281;42.678;23.372;2022-10-31T06:44:20;95760.34;;;18.15;41.57
14393;BME280;7281;42.678;23.372;2022-10-31T06:46:53;95759.63;;;17.81;42.41
14393;BME280;7281;42.678;23.372;2022-10-31T06:49:38;95740.50;;;17.84;42.20
14393;BME280;7281;42.678;23.372;2022-10-31T06:52:14;95763.09;;;18.05;41.63
14393;BME280;7281;42.678;23.372;2022-10-31T06:54:41;95764.72;;;17.72;42.60
14393;BME280;7281;42.678;23.372;2022-10-31T06:57:08;95763.22;;;17.95;42.57
14393;BME280;7281;42.678;23.372;2022-10-31T06:59:37;95760.41;;;18.34;41.06
14393;BME280;7281;42.678;23.372;2022-10-31T07:02:03;95764.25;;;18.23;42.13
14393;BME280;7281;42.678;23.372;2022-10-31T07:04:32;95763.66;;;18.02;42.20
14393;BME280;7281;42.678;23.372;2022-10-31T07:07:01;95762.31;;;18.04;42.77
14393;BME280;7281;42.678;23.372;2022-10-31T07:09:29;95750.47;;;18.68;41.46
14393;BME280;7281;42.678;23.372;2022-10-31T07:12:00;95756.91;;;18.38;41.88
14393;BME280;7281;42.678;23.372;2022-10-31T07:14:29;95765.44;;;18.35;41.90
14393;BME280;7281;42.678;23.372;2022-10-31T07:16:56;95758.09;;;18.27;42.31
14393;BME280;7281;42.678;23.372;2022-10-31T07:19:30;95752.56;;;18.47;41.59
14393;BME280;7281;42.678;23.372;2022-10-31T07:21:57;95751.44;;;18.30;41.96
14393;BME280;7281;42.678;23.372;2022-10-31T07:24:27;95739.91;;;18.81;40.60
14393;BME280;7281;42.678;23.372;2022-10-31T07:27:09;95741.19;;;18.65;41.24
14393;BME280;7281;42.678;23.372;2022-10-31T07:29:36;95736.38;;;19.60;39.99
14393;BME280;7281;42.678;23.372;2022-10-31T07:32:03;95732.19;;;19.41;40.33
14393;BME280;7281;42.678;23.372;2022-10-31T07:34:32;95736.75;;;19.54;40.02
14393;BME280;7281;42.678;23.372;2022-10-31T07:37:14;95736.91;;;19.44;40.17
14393;BME280;7281;42.678;23.372;2022-10-31T07:39:41;95740.06;;;19.46;40.48
14393;BME280;7281;42.678;23.372;2022-10-31T07:42:09;95737.25;;;19.88;39.76
14393;BME280;7281;42.678;23.372;2022-10-31T07:44:41;95742.66;;;18.76;41.83
14393;BME280;7281;42.678;23.372;2022-10-31T07:47:26;95739.94;;;19.18;41.37
14393;BME280;7281;42.678;23.372;2022-10-31T07:50:29;95725.22;;;19.45;40.94
14393;BME280;7281;42.678;23.372;2022-10-31T07:53:08;95737.25;;;19.88;40.13
14393;BME280;7281;42.678;23.372;2022-10-31T07:56:07;95743.81;;;19.45;40.99
14393;BME280;7281;42.678;23.372;2022-10-31T07:58:34;95742.09;;;19.99;40.01
14393;BME280;7281;42.678;23.372;2022-10-31T08:01:01;95730.81;;;20.48;39.19
14393;BME280;7281;42.678;23.372;2022-10-31T08:03:38;95737.09;;;20.66;38.68
14393;BME280;7281;42.678;23.372;2022-10-31T08:06:23;95738.06;;;20.83;38.19
14393;BME280;7281;42.678;23.372;2022-10-31T08:09:10;95734.75;;;20.37;39.12
14393;BME280;7281;42.678;23.372;2022-10-31T08:11:38;95726.69;;;20.91;38.61
14393;BME280;7281;42.678;23.372;2022-10-31T08:14:06;95705.44;;;21.58;37.21
14393;BME280;7281;42.678;23.372;2022-10-31T08:16:33;95722.66;;;21.07;38.08
14393;BME280;7281;42.678;23.372;2022-10-31T08:19:03;95725.41;;;21.60;37.54
14393;BME280;7281;42.678;23.372;2022-10-31T08:21:35;95723.47;;;22.05;37.06
14393;BME280;7281;42.678;23.372;2022-10-31T08:24:02;95724.97;;;22.28;35.74
14393;BME280;7281;42.678;23.372;2022-10-31T08:26:31;95725.31;;;22.35;36.25
14393;BME280;7281;42.678;23.372;2022-10-31T08:29:17;95725.78;;;21.76;36.53
14393;BME280;7281;42.678;23.372;2022-10-31T08:31:45;95721.94;;;21.82;36.18
14393;BME280;7281;42.678;23.372;2022-10-31T08:34:31;95715.91;;;21.98;35.50
14393;BME280;7281;42.678;23.372;2022-10-31T08:37:16;95715.72;;;22.73;34.71
14393;BME280;7281;42.678;23.372;2022-10-31T08:39:51;95717.81;;;22.06;35.75
14393;BME280;7281;42.678;23.372;2022-10-31T08:42:19;95715.50;;;22.61;34.91
14393;BME280;7281;42.678;23.372;2022-10-31T08:44:46;95718.06;;;22.83;34.76
14393;BME280;7281;42.678;23.372;2022-10-31T08:47:13;95709.31;;;23.26;34.10
14393;BME280;7281;42.678;23.372;2022-10-31T08:49:40;95709.34;;;23.43;33.66
14393;BME280;7281;42.678;23.372;2022-10-31T08:52:07;95714.66;;;23.51;33.73
14393;BME280;7281;42.678;23.372;2022-10-31T08:54:40;95709.59;;;23.67;33.44
14393;BME280;7281;42.678;23.372;2022-10-31T08:57:36;95696.13;;;23.29;34.53
14393;BME280;7281;42.678;23.372;2022-10-31T09:00:03;95712.28;;;23.75;33.88
14393;BME280;7281;42.678;23.372;2022-10-31T09:02:59;95705.25;;;24.00;33.04
14393;BME280;7281;42.678;23.372;2022-10-31T09:05:31;95712.34;;;24.13;33.12
14393;BME280;7281;42.678;23.372;2022-10-31T09:08:00;95712.28;;;24.30;33.25
14393;BME280;7281;42.678;23.372;2022-10-31T09:10:29;95701.38;;;24.35;32.72
14393;BME280;7281;42.678;23.372;2022-10-31T09:12:58;95700.84;;;24.79;32.38
14393;BME280;7281;42.678;23.372;2022-10-31T09:15:45;95692.59;;;24.84;32.53
14393;BME280;7281;42.678;23.372;2022-10-31T09:18:20;95698.34;;;24.74;32.35
14393;BME280;7281;42.678;23.372;2022-10-31T09:20:58;95692.00;;;24.50;33.30
14393;BME280;7281;42.678;23.372;2022-10-31T09:23:27;95696.03;;;25.14;32.01
14393;BME280;7281;42.678;23.372;2022-10-31T09:25:55;95688.63;;;25.11;31.96
14393;BME280;7281;42.678;23.372;2022-10-31T09:28:36;95679.81;;;25.64;30.62
14393;BME280;7281;42.678;23.372;2022-10-31T09:31:14;95689.44;;;25.65;30.72
14393;BME280;7281;42.678;23.372;2022-10-31T09:34:04;95697.31;;;25.29;31.45
14393;BME280;7281;42.678;23.372;2022-10-31T09:36:38;95692.56;;;25.67;30.70
14393;BME280;7281;42.678;23.372;2022-10-31T09:39:08;95680.28;;;26.11;30.50
14393;BME280;7281;42.678;23.372;2022-10-31T09:50:26;95678.38;;;26.47;30.31
14393;BME280;7281;42.678;23.372;2022-10-31T09:53:02;95686.28;;;26.08;30.28
14393;BME280;7281;42.678;23.372;2022-10-31T09:55:37;95678.16;;;26.16;30.07
14393;BME280;7281;42.678;23.372;2022-10-31T09:58:11;95683.75;;;26.47;30.22
14393;BME280;7281;42.678;23.372;2022-10-31T10:00:40;95683.47;;;25.92;30.74
14393;BME280;7281;42.678;23.372;2022-10-31T10:03:34;95668.88;;;26.26;30.47
14393;BME280;7281;42.678;23.372;2022-10-31T10:06:23;95663.97;;;25.83;30.62
14393;BME280;7281;42.678;23.372;2022-10-31T10:09:09;95657.44;;;26.41;29.78
14393;BME280;7281;42.678;23.372;2022-10-31T10:22:54;95646.22;;;27.15;28.88
14393;BME280;7281;42.678;23.372;2022-10-31T10:25:34;95636.81;;;27.21;28.64
14393;BME280;7281;42.678;23.372;2022-10-31T10:28:17;95620.97;;;27.31;28.24
14393;BME280;7281;42.678;23.372;2022-10-31T10:30:48;95637.59;;;26.57;29.87
14393;BME280;7281;42.678;23.372;2022-10-31T10:33:22;95629.91;;;26.95;28.79
14393;BME280;7281;42.678;23.372;2022-10-31T10:36:00;95626.59;;;26.62;29.67
14393;BME280;7281;42.678;23.372;2022-10-31T10:38:43;95614.75;;;26.63;28.46
14393;BME280;7281;42.678;23.372;2022-10-31T10:41:19;95615.59;;;27.47;28.28
14393;BME280;7281;42.678;23.372;2022-10-31T10:43:49;95615.31;;;26.45;29.40
14393;BME280;7281;42.678;23.372;2022-10-31T11:02:55;95601.78;;;27.33;27.41
14393;BME280;7281;42.678;23.372;2022-10-31T11:08:02;95602.44;;;27.02;27.48
14393;BME280;7281;42.678;23.372;2022-10-31T11:10:29;95600.06;;;27.13;27.45
14393;BME280;7281;42.678;23.372;2022-10-31T11:15:55;95595.41;;;26.97;28.43
14393;BME280;7281;42.678;23.372;2022-10-31T11:18:25;95587.41;;;27.41;27.57
14393;BME280;7281;42.678;23.372;2022-10-31T11:20:55;95581.88;;;27.80;26.96
14393;BME280;7281;42.678;23.372;2022-10-31T11:23:24;95586.09;;;27.50;26.45
14393;BME280;7281;42.678;23.372;2022-10-31T11:26:05;95578.91;;;27.70;27.80
14393;BME280;7281;42.678;23.372;2022-10-31T11:28:33;95577.50;;;27.76;26.95
14393;BME280;7281;42.678;23.372;2022-10-31T11:31:08;95566.72;;;27.76;26.39
14393;BME280;7281;42.678;23.372;2022-10-31T11:36:18;95578.00;;;27.35;26.52
14393;BME280;7281;42.678;23.372;2022-10-31T11:38:45;95557.28;;;28.13;25.82
14393;BME280;7281;42.678;23.372;2022-10-31T11:41:33;95572.06;;;27.88;26.10
14393;BME280;7281;42.678;23.372;2022-10-31T11:44:03;95556.63;;;28.89;25.43
14393;BME280;7281;42.678;23.372;2022-10-31T11:46:38;95551.44;;;29.19;25.52
14393;BME280;7281;42.678;23.372;2022-10-31T11:49:16;95547.84;;;29.98;25.09
14393;BME280;7281;42.678;23.372;2022-10-31T11:51:48;95547.56;;;30.07;24.32
14393;BME280;7281;42.678;23.372;2022-10-31T11:54:29;95541.84;;;30.34;23.79
14393;BME280;7281;42.678;23.372;2022-10-31T11:56:57;95547.25;;;30.94;23.57
14393;BME280;7281;42.678;23.372;2022-10-31T11:59:31;95539.28;;;30.74;23.44
14393;BME280;7281;42.678;23.372;2022-10-31T12:02:00;95535.78;;;30.44;23.10
14393;BME280;7281;42.678;23.372;2022-10-31T12:04:37;95527.22;;;30.13;22.90
14393;BME280;7281;42.678;23.372;2022-10-31T12:07:07;95523.44;;;31.43;22.67
14393;BME280;7281;42.678;23.372;2022-10-31T12:09:35;95531.69;;;32.51;21.65
14393;BME280;7281;42.678;23.372;2022-10-31T12:27:10;95523.22;;;32.67;21.32
14393;BME280;7281;42.678;23.372;2022-10-31T12:29:51;95518.09;;;34.08;19.81
14393;BME280;7281;42.678;23.372;2022-10-31T12:35:28;95518.44;;;35.49;18.86
14393;BME280;7281;42.678;23.372;2022-10-31T12:55:10;95523.91;;;34.31;19.06
14393;BME280;7281;42.678;23.372;2022-10-31T12:58:19;95523.34;;;34.99;18.84
14393;BME280;7281;42.678;23.372;2022-10-31T13:00:54;95508.34;;;35.42;19.29
14393;BME280;7281;42.678;23.372;2022-10-31T13:03:33;95509.16;;;36.38;17.90
14393;BME280;7281;42.678;23.372;2022-10-31T13:06:07;95512.91;;;36.85;17.65
14393;BME280;7281;42.678;23.372;2022-10-31T13:09:06;95512.28;;;37.04;17.61
14393;BME280;7281;42.678;23.372;2022-10-31T13:11:42;95525.78;;;36.07;17.49
14393;BME280;7281;42.678;23.372;2022-10-31T13:14:25;95517.66;;;36.00;18.07
14393;BME280;7281;42.678;23.372;2022-10-31T13:16:54;95518.16;;;35.84;18.50
14393;BME280;7281;42.678;23.372;2022-10-31T13:19:25;95522.03;;;36.34;18.27
14393;BME280;7281;42.678;23.372;2022-10-31T13:24:37;95513.31;;;36.09;18.14
14393;BME280;7281;42.678;23.372;2022-10-31T13:27:52;95522.81;;;35.87;17.89
14393;BME280;7281;42.678;23.372;2022-10-31T13:30:22;95521.63;;;35.30;18.39
14393;BME280;7281;42.678;23.372;2022-10-31T13:32:51;95514.69;;;35.15;18.49
14393;BME280;7281;42.678;23.372;2022-10-31T13:43:31;95519.53;;;34.76;19.82
14393;BME280;7281;42.678;23.372;2022-10-31T13:45:59;95522.78;;;34.04;18.93
14393;BME280;7281;42.678;23.372;2022-10-31T13:48:40;95523.53;;;33.62;20.05
14393;BME280;7281;42.678;23.372;2022-10-31T13:51:10;95521.19;;;33.64;20.17
14393;BME280;7281;42.678;23.372;2022-10-31T13:53:44;95518.38;;;33.15;20.18
14393;BME280;7281;42.678;23.372;2022-10-31T13:56:18;95522.34;;;32.45;20.69
14393;BME280;7281;42.678;23.372;2022-10-31T14:01:47;95537.03;;;31.50;21.61
14393;BME280;7281;42.678;23.372;2022-10-31T14:04:22;95538.84;;;30.43;22.83
14393;BME280;7281;42.678;23.372;2022-10-31T14:07:11;95534.09;;;30.33;23.11
14393;BME280;7281;42.678;23.372;2022-10-31T14:09:52;95528.59;;;30.29;22.85
14393;BME280;7281;42.678;23.372;2022-10-31T14:12:26;95534.81;;;29.81;23.31
14393;BME280;7281;42.678;23.372;2022-10-31T14:15:03;95533.38;;;29.04;23.86
14393;BME280;7281;42.678;23.372;2022-10-31T14:17:38;95544.31;;;29.11;24.15
14393;BME280;7281;42.678;23.372;2022-10-31T14:22:39;95546.03;;;29.38;24.42
14393;BME280;7281;42.678;23.372;2022-10-31T14:25:31;95542.28;;;29.23;24.40
14393;BME280;7281;42.678;23.372;2022-10-31T14:28:01;95539.22;;;29.25;24.48
14393;BME280;7281;42.678;23.372;2022-10-31T14:30:30;95545.63;;;28.78;24.62
14393;BME280;7281;42.678;23.372;2022-10-31T14:32:59;95546.97;;;28.88;24.85
14393;BME280;7281;42.678;23.372;2022-10-31T14:35:52;95540.78;;;29.07;24.87
14393;BME280;7281;42.678;23.372;2022-10-31T14:41:18;95541.13;;;28.67;25.26
14393;BME280;7281;42.678;23.372;2022-10-31T14:46:48;95537.94;;;28.61;24.75
14393;BME280;7281;42.678;23.372;2022-10-31T14:52:12;95545.63;;;28.59;25.22
14393;BME280;7281;42.678;23.372;2022-10-31T14:54:44;95537.53;;;28.44;25.24
14393;BME280;7281;42.678;23.372;2022-10-31T14:57:20;95545.69;;;28.47;25.48
14393;BME280;7281;42.678;23.372;2022-10-31T14:59:51;95547.47;;;28.40;25.65
14393;BME280;7281;42.678;23.372;2022-10-31T15:02:30;95550.34;;;28.31;25.96
14393;BME280;7281;42.678;23.372;2022-10-31T15:05:09;95545.34;;;28.14;26.40
14393;BME280;7281;42.678;23.372;2022-10-31T15:07:48;95549.97;;;28.14;26.27
14393;BME280;7281;42.678;23.372;2022-10-31T15:10:29;95550.34;;;27.96;26.23
14393;BME280;7281;42.678;23.372;2022-10-31T15:13:27;95558.47;;;27.69;26.27
14393;BME280;7281;42.678;23.372;2022-10-31T15:15:55;95559.16;;;27.35;26.61
14393;BME280;7281;42.678;23.372;2022-10-31T15:18:25;95562.81;;;27.42;26.32
14393;BME280;7281;42.678;23.372;2022-10-31T15:20:54;95568.22;;;27.15;26.80
14393;BME280;7281;42.678;23.372;2022-10-31T15:23:27;95566.59;;;27.26;26.90
14393;BME280;7281;42.678;23.372;2022-10-31T15:25:59;95568.00;;;26.80;27.09
14393;BME280;7281;42.678;23.372;2022-10-31T15:28:27;95561.31;;;27.01;27.54
14393;BME280;7281;42.678;23.372;2022-10-31T15:30:59;95575.25;;;26.91;27.43
14393;BME280;7281;42.678;23.372;2022-10-31T15:33:30;95573.97;;;27.01;27.01
14393;BME280;7281;42.678;23.372;2022-10-31T15:36:04;95579.34;;;26.73;27.20
14393;BME280;7281;42.678;23.372;2022-10-31T15:38:31;95585.16;;;26.75;27.13
14393;BME280;7281;42.678;23.372;2022-10-31T15:41:05;95582.63;;;26.94;26.86
14393;BME280;7281;42.678;23.372;2022-10-31T15:43:46;95577.00;;;26.72;26.86
14393;BME280;7281;42.678;23.372;2022-10-31T15:46:13;95579.34;;;26.73;26.79